Terminal Aerodrome Forecast
Issued by NWS

Home | Current Version | Previous Version | Text Only | Print | Product List | Glossary On
Versions: 1 2 3 4 5 6 7 8 9 10 11 12 13 14 15 16 17 18 19 20 21 22 23 24 25 26 27 28 29 30
166
FTUS42 KCAE 262321
TAFCUB
TAF
KCUB 262321Z 2700/2724 VRB03KT P6SM SCT250
     FM271300 20008KT P6SM BKN035
     FM271600 20010G20KT P6SM BKN040=

USA.gov is the U.S. government's official web portal to all federal, state and local government web resources and services.